Time;durP1;ratioP1;P1;durP2;ratioP2;P2;SDS_P1;SDS_P2;PMS_P1;PMS_P2;Temp;Humidity;BMP_temperature;BMP_pressure;BME280_temperature;BME280_humidity;BME280_pressure;Samples;Min_cycle;Max_cycle;Signal;HPM_P1;HPM_P2
2022/03/23 00:00:59;;;;;;;;;22.00;19.67;;;;;;;;5200095;27;9510;-77
2022/03/23 00:03:24;;;;;;;;;5.67;2.00;;;;;;;;5199092;27;12448;-77
2022/03/23 00:05:50;;;;;;;;;26.33;22.67;;;;;;;;5198832;27;24134;-77
2022/03/23 00:08:15;;;;;;;;;28.00;21.67;;;;;;;;5199170;27;23590;-77
2022/03/23 00:10:41;;;;;;;;;20.00;18.67;;;;;;;;5179890;27;12374;-77
2022/03/23 00:13:06;;;;;;;;;18.67;18.33;;;;;;;;5199725;27;9574;-77
2022/03/23 00:15:31;;;;;;;;;20.00;18.33;;;;;;;;5180676;27;15490;-77
2022/03/23 00:17:57;;;;;;;;;23.67;21.67;;;;;;;;5199529;27;10158;-77
2022/03/23 00:20:24;;;;;;;;;26.00;21.00;;;;;;;;5199681;27;12179;-77
2022/03/23 00:22:50;;;;;;;;;23.00;19.67;;;;;;;;5198793;27;11482;-77
2022/03/23 00:25:16;;;;;;;;;27.00;22.33;;;;;;;;5198559;27;13592;-77
2022/03/23 00:27:41;;;;;;;;;26.33;23.67;;;;;;;;5198727;27;12414;-77
2022/03/23 00:30:07;;;;;;;;;24.00;22.33;;;;;;;;5191111;27;11388;-77
2022/03/23 00:32:33;;;;;;;;;19.67;17.33;;;;;;;;5184724;27;11730;-77
2022/03/23 00:35:01;;;;;;;;;27.00;21.33;;;;;;;;5185040;27;12363;-77
2022/03/23 00:37:26;;;;;;;;;21.00;21.00;;;;;;;;5185225;27;12346;-77
2022/03/23 00:39:52;;;;;;;;;21.67;18.00;;;;;;;;5185253;27;11575;-77
2022/03/23 00:42:17;;;;;;;;;24.33;18.33;;;;;;;;5185200;27;11492;-78
2022/03/23 00:44:43;;;;;;;;;20.67;20.00;;;;;;;;5184823;27;11367;-77
2022/03/23 00:47:09;;;;;;;;;19.00;18.00;;;;;;;;5165549;27;12640;-78
2022/03/23 00:49:34;;;;;;;;;23.67;20.33;;;;;;;;5165361;27;15049;-77
2022/03/23 00:52:02;;;;;;;;;21.33;18.67;;;;;;;;5184509;27;13543;-77
2022/03/23 00:54:27;;;;;;;;;24.00;21.00;;;;;;;;5184500;27;12511;-77
2022/03/23 00:56:53;;;;;;;;;17.33;17.00;;;;;;;;5184957;27;12540;-77
2022/03/23 00:59:19;;;;;;;;;21.33;19.33;;;;;;;;5184754;27;12497;-77
2022/03/23 01:01:45;;;;;;;;;22.67;20.00;;;;;;;;5184430;27;13656;-77
2022/03/23 01:04:11;;;;;;;;;22.00;19.67;;;;;;;;5184483;27;13576;-77
2022/03/23 01:06:36;;;;;;;;;17.67;17.00;;;;;;;;5185280;27;12252;-77
2022/03/23 01:09:02;;;;;;;;;20.67;18.00;;;;;;;;5184844;27;13249;-77
2022/03/23 01:11:27;;;;;;;;;27.67;21.67;;;;;;;;5184799;27;10612;-77
2022/03/23 01:13:53;;;;;;;;;25.00;21.00;;;;;;;;5184667;27;13326;-78
2022/03/23 01:16:18;;;;;;;;;24.67;18.00;;;;;;;;5184678;27;11581;-77
2022/03/23 01:18:43;;;;;;;;;19.33;15.67;;;;;;;;5184447;27;11433;-79
2022/03/23 01:21:08;;;;;;;;;24.33;20.33;;;;;;;;5184625;27;13194;-77
2022/03/23 01:23:34;;;;;;;;;10.33;7.33;;;;;;;;5184825;27;13501;-77
2022/03/23 01:25:59;;;;;;;;;18.67;18.67;;;;;;;;5183986;27;23348;-77
2022/03/23 01:28:24;;;;;;;;;21.00;20.00;;;;;;;;5184425;27;21569;-77
2022/03/23 01:30:50;;;;;;;;;20.00;18.00;;;;;;;;5183963;27;13257;-77
2022/03/23 01:33:15;;;;;;;;;24.00;23.00;;;;;;;;5185395;27;9505;-77
2022/03/23 01:35:40;;;;;;;;;26.33;21.67;;;;;;;;5184827;27;9455;-77
2022/03/23 01:38:05;;;;;;;;;21.67;17.33;;;;;;;;5184746;27;12475;-78
2022/03/23 01:40:31;;;;;;;;;20.33;17.67;;;;;;;;5184258;27;12403;-78
2022/03/23 01:42:56;;;;;;;;;24.00;20.33;;;;;;;;5164704;27;13316;-78
2022/03/23 01:45:22;;;;;;;;;21.00;20.67;;;;;;;;5184525;27;12903;-78
2022/03/23 01:47:47;;;;;;;;;30.33;23.00;;;;;;;;5183665;27;11376;-77
2022/03/23 01:50:12;;;;;;;;;23.33;20.67;;;;;;;;5183652;27;13238;-78
2022/03/23 01:52:38;;;;;;;;;19.00;18.67;;;;;;;;5183929;27;13386;-77
2022/03/23 01:55:13;;;;;;;;;19.00;17.00;;;;;;;;5164888;27;13546;-77
2022/03/23 01:57:39;;;;;;;;;18.67;15.67;;;;;;;;5183224;27;10184;-77
2022/03/23 02:00:08;;;;;;;;;19.67;15.33;;;;;;;;5183407;27;11589;-76
2022/03/23 02:02:34;;;;;;;;;20.00;16.33;;;;;;;;5183359;27;12110;-77
2022/03/23 02:04:59;;;;;;;;;14.00;13.00;;;;;;;;5183358;27;13498;-77
2022/03/23 02:07:24;;;;;;;;;17.67;17.00;;;;;;;;5183371;27;13212;-78
2022/03/23 02:09:50;;;;;;;;;16.67;14.67;;;;;;;;5184657;27;10601;-78
2022/03/23 02:12:15;;;;;;;;;18.67;14.67;;;;;;;;5165074;27;13446;-78
2022/03/23 02:14:41;;;;;;;;;17.00;14.67;;;;;;;;5165079;27;8975;-77
2022/03/23 02:17:06;;;;;;;;;19.00;13.00;;;;;;;;5183826;27;8885;-77
2022/03/23 02:19:32;;;;;;;;;16.00;16.00;;;;;;;;5182786;27;11364;-77
2022/03/23 02:21:57;;;;;;;;;14.67;13.33;;;;;;;;5164356;27;11472;-78
2022/03/23 02:24:24;;;;;;;;;19.00;17.00;;;;;;;;5183161;27;11366;-77
2022/03/23 02:26:49;;;;;;;;;17.67;14.67;;;;;;;;5184149;27;11938;-77
2022/03/23 02:29:15;;;;;;;;;19.00;18.00;;;;;;;;5164813;27;13785;-77
2022/03/23 02:31:40;;;;;;;;;19.00;19.00;;;;;;;;5183791;27;11651;-78
2022/03/23 02:34:06;;;;;;;;;20.67;16.00;;;;;;;;5183893;27;8870;-77
2022/03/23 02:36:31;;;;;;;;;17.67;17.67;;;;;;;;5183277;27;12459;-77
2022/03/23 02:38:57;;;;;;;;;11.00;11.00;;;;;;;;5183301;27;13180;-77
2022/03/23 02:41:22;;;;;;;;;12.33;12.33;;;;;;;;5183247;27;11493;-77
2022/03/23 02:43:48;;;;;;;;;13.33;11.67;;;;;;;;5163943;27;14488;-77
2022/03/23 02:46:17;;;;;;;;;19.00;16.67;;;;;;;;5183049;27;11344;-77
2022/03/23 02:48:43;;;;;;;;;8.67;8.00;;;;;;;;5182807;27;10407;-77
2022/03/23 02:51:08;;;;;;;;;19.00;15.33;;;;;;;;5163308;27;22782;-77
2022/03/23 03:02:16;;;;;;;;;14.00;14.00;;;;;;;;5182807;27;13394;-79
2022/03/23 03:04:42;;;;;;;;;22.33;16.00;;;;;;;;5182460;27;14015;-78
2022/03/23 03:07:08;;;;;;;;;20.00;13.67;;;;;;;;5163180;27;14978;-78
2022/03/23 03:09:33;;;;;;;;;17.67;14.00;;;;;;;;5182565;27;12019;-78
2022/03/23 03:12:01;;;;;;;;;14.67;13.00;;;;;;;;5181970;27;13401;-77
2022/03/23 03:14:27;;;;;;;;;17.00;14.33;;;;;;;;5182246;27;9486;-77
2022/03/23 03:16:53;;;;;;;;;16.67;11.67;;;;;;;;5182647;27;11411;-78
2022/03/23 03:19:19;;;;;;;;;16.00;14.00;;;;;;;;5181479;27;11384;-77
2022/03/23 03:21:45;;;;;;;;;13.67;13.00;;;;;;;;5183063;27;10479;-77
2022/03/23 03:24:10;;;;;;;;;23.00;15.33;;;;;;;;5182813;27;10324;-77
2022/03/23 03:26:36;;;;;;;;;13.67;11.67;;;;;;;;5183108;27;13257;-77
2022/03/23 03:29:04;;;;;;;;;14.33;11.67;;;;;;;;5182918;27;13246;-77
2022/03/23 03:31:30;;;;;;;;;8.33;7.00;;;;;;;;5182962;27;9116;-77
2022/03/23 03:33:55;;;;;;;;;14.67;14.33;;;;;;;;5182438;27;22115;-77
2022/03/23 03:36:20;;;;;;;;;7.00;6.33;;;;;;;;5182962;27;22718;-77
2022/03/23 03:38:46;;;;;;;;;13.67;11.33;;;;;;;;5182076;27;23898;-77
2022/03/23 03:41:11;;;;;;;;;19.33;13.00;;;;;;;;5182465;27;23261;-77
2022/03/23 03:43:37;;;;;;;;;21.33;13.33;;;;;;;;5182701;27;11414;-77
2022/03/23 03:46:06;;;;;;;;;17.33;13.00;;;;;;;;5163012;27;15649;-77
2022/03/23 03:48:31;;;;;;;;;16.67;15.33;;;;;;;;5181896;27;13930;-77
2022/03/23 03:50:56;;;;;;;;;13.00;11.33;;;;;;;;5182581;27;11343;-78
2022/03/23 03:53:22;;;;;;;;;16.00;14.33;;;;;;;;5182454;27;10390;-77
2022/03/23 03:55:47;;;;;;;;;11.67;11.00;;;;;;;;5182251;27;9454;-78
2022/03/23 03:58:12;;;;;;;;;11.00;11.00;;;;;;;;5182240;27;11460;-78
2022/03/23 04:00:38;;;;;;;;;13.00;13.00;;;;;;;;5182852;27;8765;-78
2022/03/23 04:03:04;;;;;;;;;21.33;14.00;;;;;;;;5183190;27;8884;-78
2022/03/23 04:05:29;;;;;;;;;14.00;13.67;;;;;;;;5185117;27;12195;-78
2022/03/23 04:07:55;;;;;;;;;14.33;14.33;;;;;;;;5186345;27;13279;-78
2022/03/23 04:10:21;;;;;;;;;13.67;13.00;;;;;;;;5185755;27;11937;-77
2022/03/23 04:12:46;;;;;;;;;12.00;12.00;;;;;;;;5185885;27;11593;-76
2022/03/23 04:15:11;;;;;;;;;18.00;15.33;;;;;;;;5185569;27;10750;-77
2022/03/23 04:17:37;;;;;;;;;15.33;14.33;;;;;;;;5185713;27;11405;-77
2022/03/23 04:20:02;;;;;;;;;22.00;13.00;;;;;;;;5185738;27;10327;-77
2022/03/23 04:22:28;;;;;;;;;13.67;13.00;;;;;;;;5167358;27;15532;-76
2022/03/23 04:24:53;;;;;;;;;14.33;14.33;;;;;;;;5186073;27;10200;-77
2022/03/23 04:27:18;;;;;;;;;14.67;11.33;;;;;;;;5186379;27;11513;-77
2022/03/23 04:29:44;;;;;;;;;11.33;11.33;;;;;;;;5186288;27;10220;-77
2022/03/23 04:32:10;;;;;;;;;14.33;14.33;;;;;;;;5186265;27;9006;-77
2022/03/23 04:34:35;;;;;;;;;13.00;13.00;;;;;;;;5185415;27;8931;-76
2022/03/23 04:37:01;;;;;;;;;10.00;8.00;;;;;;;;5185012;27;12385;-78
2022/03/23 04:39:26;;;;;;;;;17.33;13.33;;;;;;;;5184644;27;21833;-77
2022/03/23 04:41:52;;;;;;;;;13.33;13.00;;;;;;;;5185333;27;21393;-78
2022/03/23 04:44:21;;;;;;;;;16.00;13.67;;;;;;;;5184773;27;12550;-77
2022/03/23 04:46:46;;;;;;;;;22.00;16.00;;;;;;;;5185351;27;11744;-78
2022/03/23 04:49:13;;;;;;;;;17.00;13.00;;;;;;;;5184413;27;13524;-78
2022/03/23 04:51:38;;;;;;;;;13.33;12.33;;;;;;;;5185859;27;10425;-77
2022/03/23 04:54:04;;;;;;;;;16.33;14.33;;;;;;;;5185502;27;11346;-77
2022/03/23 04:56:29;;;;;;;;;14.33;13.00;;;;;;;;5166228;27;10732;-77
2022/03/23 04:58:56;;;;;;;;;16.67;15.00;;;;;;;;5183787;27;12629;-78
2022/03/23 05:01:21;;;;;;;;;11.33;11.00;;;;;;;;5183085;27;11514;-73
2022/03/23 05:03:47;;;;;;;;;16.67;16.00;;;;;;;;5182369;27;11525;-72
2022/03/23 05:06:12;;;;;;;;;18.33;16.33;;;;;;;;5182465;27;10588;-71
2022/03/23 05:08:37;;;;;;;;;22.33;16.00;;;;;;;;5182776;27;11659;-73
2022/03/23 05:11:02;;;;;;;;;15.67;14.00;;;;;;;;5181614;27;13445;-78
2022/03/23 05:13:28;;;;;;;;;14.33;13.33;;;;;;;;5182450;27;12433;-76
2022/03/23 05:15:53;;;;;;;;;23.67;17.67;;;;;;;;5182447;27;11363;-75
2022/03/23 05:18:18;;;;;;;;;20.67;15.00;;;;;;;;5182493;27;13249;-75
2022/03/23 05:20:44;;;;;;;;;19.00;15.33;;;;;;;;5182417;27;11419;-78
2022/03/23 05:23:09;;;;;;;;;19.33;15.67;;;;;;;;5163613;27;13603;-77
2022/03/23 05:25:34;;;;;;;;;18.67;18.00;;;;;;;;5183038;27;8832;-77
2022/03/23 05:28:00;;;;;;;;;19.67;15.00;;;;;;;;5163943;27;13632;-78
2022/03/23 05:30:25;;;;;;;;;18.67;16.00;;;;;;;;5182661;27;8801;-76
2022/03/23 05:32:50;;;;;;;;;16.67;14.67;;;;;;;;5182663;27;8975;-77
2022/03/23 05:35:17;;;;;;;;;18.33;15.33;;;;;;;;5182959;27;11385;-77
2022/03/23 05:37:45;;;;;;;;;14.00;14.00;;;;;;;;5182256;27;13107;-77
2022/03/23 05:40:11;;;;;;;;;21.67;16.00;;;;;;;;5183628;27;11932;-79
2022/03/23 05:42:36;;;;;;;;;21.67;19.00;;;;;;;;5187661;27;12194;-80
2022/03/23 05:45:02;;;;;;;;;18.33;15.00;;;;;;;;5190972;27;8832;-79
2022/03/23 05:47:27;;;;;;;;;21.33;18.33;;;;;;;;5188033;27;12553;-79
2022/03/23 05:49:52;;;;;;;;;18.00;18.00;;;;;;;;5186324;27;14258;-81
2022/03/23 05:52:18;;;;;;;;;20.33;17.00;;;;;;;;5163327;27;15181;-80
2022/03/23 05:54:43;;;;;;;;;18.00;15.00;;;;;;;;5183524;27;12714;-78
2022/03/23 05:57:08;;;;;;;;;15.33;12.00;;;;;;;;5182034;27;12253;-77
2022/03/23 05:59:34;;;;;;;;;19.33;16.00;;;;;;;;5181947;27;10338;-79
2022/03/23 06:01:59;;;;;;;;;14.00;13.00;;;;;;;;5182476;27;8816;-80
2022/03/23 06:04:24;;;;;;;;;15.00;14.33;;;;;;;;5162576;27;10605;-79
2022/03/23 06:06:50;;;;;;;;;17.33;16.00;;;;;;;;5182205;27;11362;-81
2022/03/23 06:09:18;;;;;;;;;16.00;16.00;;;;;;;;5181591;27;12078;-76
2022/03/23 06:11:43;;;;;;;;;16.67;13.00;;;;;;;;5179362;27;9130;-78
2022/03/23 06:14:11;;;;;;;;;21.33;14.33;;;;;;;;5182038;27;9581;-75
2022/03/23 06:16:36;;;;;;;;;15.67;13.33;;;;;;;;5181289;27;13558;-77
2022/03/23 06:19:01;;;;;;;;;14.00;14.00;;;;;;;;5180191;27;12274;-76
2022/03/23 06:21:27;;;;;;;;;14.33;11.33;;;;;;;;5177414;27;11481;-76
2022/03/23 06:23:52;;;;;;;;;20.33;16.33;;;;;;;;5178037;27;10342;-73
2022/03/23 06:26:17;;;;;;;;;16.00;16.00;;;;;;;;5179599;27;10335;-76
2022/03/23 06:28:43;;;;;;;;;22.00;18.67;;;;;;;;5176925;27;14312;-75
2022/03/23 06:31:08;;;;;;;;;12.00;12.00;;;;;;;;5180156;27;13207;-74
2022/03/23 06:33:33;;;;;;;;;20.33;15.67;;;;;;;;5180660;27;13359;-75
2022/03/23 06:35:59;;;;;;;;;19.33;16.00;;;;;;;;5179615;27;13274;-73
2022/03/23 06:38:24;;;;;;;;;18.50;16.00;;;;;;;;5176831;27;13213;-75
2022/03/23 06:40:49;;;;;;;;;17.67;17.00;;;;;;;;5180445;27;8833;-74
2022/03/23 06:43:15;;;;;;;;;21.33;16.33;;;;;;;;5179862;27;10427;-73
2022/03/23 06:45:42;;;;;;;;;22.00;20.67;;;;;;;;5177050;27;13740;-75
2022/03/23 06:48:08;;;;;;;;;17.67;16.33;;;;;;;;5180224;27;12260;-76
2022/03/23 06:50:33;;;;;;;;;25.50;22.00;;;;;;;;5180425;27;13222;-76
2022/03/23 06:52:59;;;;;;;;;28.00;23.67;;;;;;;;5180059;27;13230;-76
2022/03/23 06:55:24;;;;;;;;;22.00;18.25;;;;;;;;5180756;27;11451;-75
2022/03/23 06:57:49;;;;;;;;;38.00;30.00;;;;;;;;5160357;27;12649;-74
2022/03/23 07:00:15;;;;;;;;;32.00;28.33;;;;;;;;5160891;27;13820;-76
2022/03/23 07:02:44;;;;;;;;;28.00;24.00;;;;;;;;5180254;27;12580;-74
2022/03/23 07:05:11;;;;;;;;;28.67;25.67;;;;;;;;5161559;27;13973;-75
2022/03/23 07:07:37;;;;;;;;;29.00;25.67;;;;;;;;5181639;27;10612;-74
2022/03/23 07:10:06;;;;;;;;;18.25;11.75;;;;;;;;5181186;27;8855;-75
2022/03/23 07:12:31;;;;;;;;;27.00;25.67;;;;;;;;5163559;27;15543;-76
2022/03/23 07:14:57;;;;;;;;;33.00;23.67;;;;;;;;5181529;27;13205;-76
2022/03/23 07:17:23;;;;;;;;;26.00;22.00;;;;;;;;5181971;27;10576;-76
2022/03/23 07:19:48;;;;;;;;;31.67;26.67;;;;;;;;5182066;27;14364;-76
2022/03/23 07:22:15;;;;;;;;;25.33;22.00;;;;;;;;5181979;27;13441;-76
2022/03/23 07:24:41;;;;;;;;;28.67;22.67;;;;;;;;5181629;27;13301;-76
2022/03/23 07:27:07;;;;;;;;;30.33;24.33;;;;;;;;5181906;27;11460;-76
2022/03/23 07:29:32;;;;;;;;;25.00;25.00;;;;;;;;5181541;27;13228;-76
2022/03/23 07:31:57;;;;;;;;;19.00;18.00;;;;;;;;5181474;27;14082;-75
2022/03/23 07:34:23;;;;;;;;;28.33;24.00;;;;;;;;5162067;27;10749;-74
2022/03/23 07:36:48;;;;;;;;;24.33;22.00;;;;;;;;5180718;27;13464;-73
2022/03/23 07:39:20;;;;;;;;;26.33;22.67;;;;;;;;5176463;27;9011;-73
2022/03/23 07:41:50;;;;;;;;;27.00;24.33;;;;;;;;5184734;27;11788;-72
2022/03/23 07:44:16;;;;;;;;;24.67;22.67;;;;;;;;5183275;27;12818;-73
2022/03/23 07:46:41;;;;;;;;;23.00;21.33;;;;;;;;5184448;27;11438;-72
2022/03/23 07:49:06;;;;;;;;;24.33;19.00;;;;;;;;5164261;27;12313;-72
2022/03/23 07:51:31;;;;;;;;;24.00;21.33;;;;;;;;5183620;27;12884;-71
2022/03/23 07:53:57;;;;;;;;;33.00;25.67;;;;;;;;5164175;27;13148;-76
2022/03/23 07:56:22;;;;;;;;;22.67;21.33;;;;;;;;5164412;27;14004;-73
2022/03/23 07:58:47;;;;;;;;;27.00;23.00;;;;;;;;5184098;27;13970;-74
2022/03/23 08:01:15;;;;;;;;;22.33;20.33;;;;;;;;5184509;27;11595;-74
2022/03/23 08:03:41;;;;;;;;;26.00;21.00;;;;;;;;5183620;27;11641;-74
2022/03/23 08:06:06;;;;;;;;;20.00;20.00;;;;;;;;5183765;27;12606;-74
2022/03/23 08:08:32;;;;;;;;;21.67;18.33;;;;;;;;5183445;27;8793;-72
2022/03/23 08:10:57;;;;;;;;;23.67;21.33;;;;;;;;5164956;27;13670;-75
2022/03/23 08:13:22;;;;;;;;;20.67;19.33;;;;;;;;5183299;27;9511;-74
2022/03/23 08:15:48;;;;;;;;;24.33;22.00;;;;;;;;5183702;27;9779;-73
2022/03/23 08:18:15;;;;;;;;;25.67;25.67;;;;;;;;5182700;27;13491;-74
2022/03/23 08:20:41;;;;;;;;;23.33;23.00;;;;;;;;5183112;27;11709;-74
2022/03/23 08:23:08;;;;;;;;;23.67;23.67;;;;;;;;5183626;27;11607;-75
2022/03/23 08:25:34;;;;;;;;;28.00;21.33;;;;;;;;5164814;27;8782;-74
2022/03/23 08:28:00;;;;;;;;;26.33;24.00;;;;;;;;5164804;27;12334;-74
2022/03/23 08:30:26;;;;;;;;;22.33;22.33;;;;;;;;5183414;27;12538;-74
2022/03/23 08:32:51;;;;;;;;;21.00;19.67;;;;;;;;5183403;27;11462;-73
2022/03/23 08:35:20;;;;;;;;;30.33;23.67;;;;;;;;5177716;27;12218;-74
2022/03/23 08:37:45;;;;;;;;;29.67;24.67;;;;;;;;5179649;27;12753;-74
2022/03/23 08:40:11;;;;;;;;;25.67;24.33;;;;;;;;5181522;27;12199;-75
2022/03/23 08:42:36;;;;;;;;;22.75;19.50;;;;;;;;5181579;27;12698;-74
2022/03/23 08:45:04;;;;;;;;;23.25;22.00;;;;;;;;5162442;27;14699;-74
2022/03/23 08:47:30;;;;;;;;;24.25;22.00;;;;;;;;5178803;27;12519;-72
2022/03/23 08:49:58;;;;;;;;;20.50;18.50;;;;;;;;5181389;27;11456;-74
2022/03/23 08:52:24;;;;;;;;;23.50;20.75;;;;;;;;5181358;27;12645;-73
2022/03/23 08:54:49;;;;;;;;;22.00;21.25;;;;;;;;5181380;27;12213;-74
2022/03/23 08:57:14;;;;;;;;;25.00;23.50;;;;;;;;5180933;27;11664;-74
2022/03/23 08:59:40;;;;;;;;;17.25;16.50;;;;;;;;5183207;27;11638;-74
2022/03/23 09:02:06;;;;;;;;;26.00;23.00;;;;;;;;5182612;27;12218;-74
2022/03/23 09:04:32;;;;;;;;;24.75;23.00;;;;;;;;5182934;27;13472;-73
2022/03/23 09:06:57;;;;;;;;;23.50;22.50;;;;;;;;5181652;27;11081;-75
2022/03/23 09:09:22;;;;;;;;;23.50;23.00;;;;;;;;5181866;27;12834;-72
2022/03/23 09:11:48;;;;;;;;;48.50;40.50;;;;;;;;5181039;27;8882;-73
2022/03/23 09:14:13;;;;;;;;;26.00;22.75;;;;;;;;5181735;27;13261;-72
2022/03/23 09:16:39;;;;;;;;;30.75;28.50;;;;;;;;5181395;27;13317;-75
2022/03/23 09:19:05;;;;;;;;;25.50;24.50;;;;;;;;5160608;27;13748;-76
2022/03/23 09:21:31;;;;;;;;;31.50;28.75;;;;;;;;5179566;27;12404;-76
2022/03/23 09:23:57;;;;;;;;;36.50;33.25;;;;;;;;5182291;27;14715;-76
2022/03/23 09:26:22;;;;;;;;;33.25;27.75;;;;;;;;5181884;27;11457;-77
2022/03/23 09:28:48;;;;;;;;;28.75;27.50;;;;;;;;5182063;27;11372;-76
2022/03/23 09:31:13;;;;;;;;;27.00;26.50;;;;;;;;5181697;27;13510;-75
2022/03/23 09:33:39;;;;;;;;;28.50;27.00;;;;;;;;5181774;27;10348;-77
2022/03/23 09:36:05;;;;;;;;;25.00;24.75;;;;;;;;5181790;27;11448;-77
2022/03/23 09:38:30;;;;;;;;;25.33;22.33;;;;;;;;5181688;27;11743;-74
2022/03/23 09:40:56;;;;;;;;;25.33;24.00;;;;;;;;5164614;27;11783;-78
2022/03/23 09:43:23;;;;;;;;;24.67;24.00;;;;;;;;5181802;27;8952;-75
2022/03/23 09:45:48;;;;;;;;;24.00;22.33;;;;;;;;5181788;27;10340;-76
2022/03/23 09:48:17;;;;;;;;;26.00;23.00;;;;;;;;5181259;27;10366;-85
2022/03/23 09:50:46;;;;;;;;;24.33;24.33;;;;;;;;5181745;27;11516;-86
2022/03/23 09:53:12;;;;;;;;;21.00;21.00;;;;;;;;5181863;27;12758;-84
2022/03/23 09:55:37;;;;;;;;;22.00;21.00;;;;;;;;5181683;27;11430;-79
2022/03/23 09:58:04;;;;;;;;;22.33;22.33;;;;;;;;5181557;27;8889;-81
2022/03/23 10:00:33;;;;;;;;;26.00;25.67;;;;;;;;5181341;27;10441;-81
2022/03/23 10:02:58;;;;;;;;;25.00;25.00;;;;;;;;5179976;27;11721;-82
2022/03/23 10:05:45;;;;;;;;;23.67;23.67;;;;;;;;5181085;27;12520;-82
2022/03/23 10:08:23;;;;;;;;;24.00;24.00;;;;;;;;5179604;27;11464;-82
2022/03/23 10:11:14;;;;;;;;;24.25;24.25;;;;;;;;5179957;27;12250;-84
2022/03/23 10:14:12;;;;;;;;;21.00;20.50;;;;;;;;5181024;27;8904;-80
2022/03/23 10:16:55;;;;;;;;;21.00;20.50;;;;;;;;5121753;27;11617;-81
2022/03/23 10:19:21;;;;;;;;;22.75;22.75;;;;;;;;5181122;27;8805;-82
2022/03/23 10:21:46;;;;;;;;;23.67;22.33;;;;;;;;5181481;27;11380;-81
2022/03/23 10:24:11;;;;;;;;;22.67;21.67;;;;;;;;5181250;27;10491;-75
2022/03/23 10:26:37;;;;;;;;;24.67;23.67;;;;;;;;5180817;27;11382;-75
2022/03/23 10:29:04;;;;;;;;;24.33;22.67;;;;;;;;5180400;27;8813;-74
2022/03/23 10:31:29;;;;;;;;;23.75;22.50;;;;;;;;5180510;27;12216;-78
2022/03/23 10:34:07;;;;;;;;;28.67;26.67;;;;;;;;5161723;27;11623;-76
2022/03/23 10:36:34;;;;;;;;;22.50;22.50;;;;;;;;5181528;27;12339;-75
2022/03/23 10:39:01;;;;;;;;;24.25;24.00;;;;;;;;5161905;27;13952;-75
2022/03/23 10:41:27;;;;;;;;;22.25;22.00;;;;;;;;5181432;27;11697;-74
2022/03/23 10:43:52;;;;;;;;;23.00;21.33;;;;;;;;5181522;27;8799;-74
2022/03/23 10:46:20;;;;;;;;;17.67;17.67;;;;;;;;5181687;27;11368;-77
2022/03/23 10:49:01;;;;;;;;;20.67;19.33;;;;;;;;5180895;27;13330;-77
2022/03/23 10:51:30;;;;;;;;;20.67;18.33;;;;;;;;5162133;27;15172;-77
2022/03/23 10:53:56;;;;;;;;;23.75;22.00;;;;;;;;5180712;27;9238;-73
2022/03/23 10:56:32;;;;;;;;;21.00;19.00;;;;;;;;5180845;27;13047;-75
2022/03/23 10:59:17;;;;;;;;;19.50;18.00;;;;;;;;5181184;27;11699;-75
2022/03/23 11:02:03;;;;;;;;;21.75;20.75;;;;;;;;5181126;27;12304;-74
2022/03/23 11:04:45;;;;;;;;;23.25;19.00;;;;;;;;5162103;27;15940;-74
2022/03/23 11:07:25;;;;;;;;;20.75;20.25;;;;;;;;5174014;27;12269;-75
2022/03/23 11:18:06;;;;;;;;;17.50;17.50;;;;;;;;5159348;27;13254;-74
2022/03/23 11:20:43;;;;;;;;;17.25;16.75;;;;;;;;5140434;27;15772;-75
2022/03/23 11:23:16;;;;;;;;;17.50;16.50;;;;;;;;5160179;27;10755;-76
2022/03/23 11:25:43;;;;;;;;;13.75;12.50;;;;;;;;5140641;27;10973;-75
2022/03/23 11:28:09;;;;;;;;;14.00;13.00;;;;;;;;5160245;27;10646;-76
2022/03/23 11:30:35;;;;;;;;;17.00;15.00;;;;;;;;5140482;27;14056;-76
2022/03/23 11:33:00;;;;;;;;;17.00;15.00;;;;;;;;5158542;27;11448;-76
2022/03/23 11:35:27;;;;;;;;;16.50;14.25;;;;;;;;5139950;27;8788;-76
2022/03/23 11:37:54;;;;;;;;;19.25;19.00;;;;;;;;5174563;27;11460;-79
2022/03/23 11:40:20;;;;;;;;;14.25;13.00;;;;;;;;5180834;27;11762;-76
2022/03/23 11:42:46;;;;;;;;;14.00;14.00;;;;;;;;5181105;27;10623;-78
2022/03/23 11:45:12;;;;;;;;;16.75;15.50;;;;;;;;5160381;27;11584;-75
2022/03/23 11:47:42;;;;;;;;;17.50;15.75;;;;;;;;5180770;27;11689;-88
2022/03/23 11:50:07;;;;;;;;;17.00;14.50;;;;;;;;5181998;27;11596;-87
2022/03/23 11:52:33;;;;;;;;;13.25;11.75;;;;;;;;5161783;27;11067;-76
2022/03/23 11:58:24;;;;;;;;;16.00;15.00;;;;;;;;5182903;27;9683;-88
2022/03/23 12:00:57;;;;;;;;;18.75;15.75;;;;;;;;5187721;27;11455;-87
2022/03/23 12:03:40;;;;;;;;;15.25;14.00;;;;;;;;5184917;27;11477;-87
2022/03/23 12:06:09;;;;;;;;;20.50;18.75;;;;;;;;5180559;27;11713;-76
2022/03/23 12:08:50;;;;;;;;;17.25;17.25;;;;;;;;5179723;27;13369;-78
2022/03/23 12:11:32;;;;;;;;;15.25;13.75;;;;;;;;5160798;27;15477;-80
2022/03/23 12:13:58;;;;;;;;;17.75;16.50;;;;;;;;5179765;27;11371;-82
2022/03/23 12:17:02;;;;;;;;;18.50;14.00;;;;;;;;5160259;27;13397;-81
2022/03/23 12:19:34;;;;;;;;;18.00;18.00;;;;;;;;5073710;28;11672;-80
2022/03/23 12:22:05;;;;;;;;;16.00;16.00;;;;;;;;5074079;28;12392;-77
2022/03/23 12:24:49;;;;;;;;;15.75;15.75;;;;;;;;5074684;28;11523;-81
2022/03/23 12:27:21;;;;;;;;;14.75;13.25;;;;;;;;5077533;28;12220;-84
2022/03/23 12:29:47;;;;;;;;;19.25;14.25;;;;;;;;5077919;28;11585;-77
2022/03/23 12:32:14;;;;;;;;;15.25;14.50;;;;;;;;5060635;28;11893;-76
2022/03/23 12:34:40;;;;;;;;;14.00;12.50;;;;;;;;5059709;28;11676;-77
2022/03/23 12:37:09;;;;;;;;;14.50;14.00;;;;;;;;5077908;28;11466;-76
2022/03/23 12:39:44;;;;;;;;;15.75;14.00;;;;;;;;5076213;28;11544;-76
2022/03/23 12:42:12;;;;;;;;;19.50;13.75;;;;;;;;5077392;28;11443;-76
2022/03/23 12:44:38;;;;;;;;;15.00;13.00;;;;;;;;5077158;28;11441;-75
2022/03/23 12:47:05;;;;;;;;;14.50;14.50;;;;;;;;5060300;28;11869;-76
2022/03/23 12:58:17;;;;;;;;;18.50;16.75;;;;;;;;5161593;27;11409;-76
2022/03/23 13:00:43;;;;;;;;;15.75;14.25;;;;;;;;5162387;27;11794;-76
2022/03/23 13:03:28;;;;;;;;;18.50;16.00;;;;;;;;5162277;27;11368;-78
2022/03/23 13:05:54;;;;;;;;;20.25;17.50;;;;;;;;5162133;27;11671;-73
2022/03/23 13:08:33;;;;;;;;;18.00;17.75;;;;;;;;5161842;27;13576;-75
2022/03/23 13:10:58;;;;;;;;;18.50;18.00;;;;;;;;5160873;27;13507;-74
2022/03/23 13:13:28;;;;;;;;;14.25;13.75;;;;;;;;5162270;27;11675;-74
2022/03/23 13:15:53;;;;;;;;;16.50;14.00;;;;;;;;5161470;27;11719;-72
2022/03/23 13:18:23;;;;;;;;;16.50;14.50;;;;;;;;5142817;27;11956;-73
2022/03/23 13:20:52;;;;;;;;;19.50;17.00;;;;;;;;5169624;27;8798;-73
2022/03/23 13:23:19;;;;;;;;;17.50;14.75;;;;;;;;5164338;27;14044;-72
2022/03/23 13:25:44;;;;;;;;;19.75;18.00;;;;;;;;5163436;27;13788;-73
2022/03/23 13:28:13;;;;;;;;;16.25;15.75;;;;;;;;5163619;27;12102;-71
2022/03/23 13:30:40;;;;;;;;;16.50;13.00;;;;;;;;5183198;27;11438;-71
2022/03/23 13:33:09;;;;;;;;;15.75;15.75;;;;;;;;5182702;27;11369;-73
2022/03/23 13:35:41;;;;;;;;;18.00;17.00;;;;;;;;5183159;27;11792;-73
2022/03/23 13:38:07;;;;;;;;;9.00;8.25;;;;;;;;5163987;27;11800;-75
2022/03/23 13:43:24;;;;;;;;;16.50;15.75;;;;;;;;5182914;27;22458;-72
2022/03/23 13:45:56;;;;;;;;;16.50;12.50;;;;;;;;5183335;27;11437;-73
2022/03/23 13:49:44;;;;;;;;;18.25;16.25;;;;;;;;5157310;27;1446459;-78
2022/03/23 13:52:11;;;;;;;;;13.25;12.00;;;;;;;;5198609;27;22701;-78
2022/03/23 13:54:36;;;;;;;;;19.00;16.00;;;;;;;;5198776;27;11513;-78
2022/03/23 13:57:01;;;;;;;;;9.25;9.00;;;;;;;;5198626;27;11387;-77
2022/03/23 13:59:32;;;;;;;;;17.50;16.00;;;;;;;;5197753;27;22531;-79
2022/03/23 14:01:58;;;;;;;;;19.50;18.25;;;;;;;;5179445;27;22823;-77
2022/03/23 14:04:23;;;;;;;;;19.00;18.00;;;;;;;;5198053;27;12523;-78
2022/03/23 14:06:50;;;;;;;;;18.50;17.00;;;;;;;;5198020;27;8924;-79
2022/03/23 14:09:23;;;;;;;;;15.75;15.75;;;;;;;;5198554;27;10412;-79
2022/03/23 14:11:56;;;;;;;;;18.50;15.00;;;;;;;;5198554;27;12235;-75
2022/03/23 14:14:27;;;;;;;;;19.25;18.75;;;;;;;;5198296;27;11896;-78
2022/03/23 14:17:16;;;;;;;;;20.25;20.00;;;;;;;;5197680;27;11614;-79
2022/03/23 14:19:43;;;;;;;;;20.75;20.00;;;;;;;;5184615;27;13900;-77
2022/03/23 14:22:12;;;;;;;;;18.75;18.75;;;;;;;;5168435;27;11565;-81
2022/03/23 14:24:38;;;;;;;;;19.25;18.75;;;;;;;;5186133;27;13532;-81
2022/03/23 14:27:22;;;;;;;;;18.50;15.50;;;;;;;;5166932;27;11427;-83
2022/03/23 14:30:09;;;;;;;;;18.25;17.25;;;;;;;;5167459;27;11862;-81
2022/03/23 14:32:50;;;;;;;;;16.00;15.00;;;;;;;;5186361;27;12418;-81
2022/03/23 14:35:20;;;;;;;;;16.25;16.25;;;;;;;;5166608;27;13751;-74
2022/03/23 14:37:46;;;;;;;;;17.75;17.50;;;;;;;;5185090;27;11376;-79
2022/03/23 14:40:28;;;;;;;;;20.75;18.00;;;;;;;;5186648;27;12660;-78
2022/03/23 14:42:55;;;;;;;;;20.50;20.50;;;;;;;;5184963;27;13321;-78
2022/03/23 14:45:43;;;;;;;;;21.00;16.50;;;;;;;;5180779;27;12590;-79
2022/03/23 14:48:17;;;;;;;;;19.25;18.00;;;;;;;;5176083;27;11517;-78
2022/03/23 14:50:43;;;;;;;;;16.25;13.50;;;;;;;;5176698;27;14124;-81
2022/03/23 14:53:09;;;;;;;;;15.75;11.00;;;;;;;;5179442;27;12565;-79